Randallstown, Maryland
Current Conditions -  °F | °C
As of 11:54 AM on Friday 19 Dec 2014 (Local Time) from KBWI Reporting Station
Broken Clouds Broken Clouds  
Wind Chill: 31°   Ceiling: 3300
Heat Index: 37°   Visibility: 10mi
Dew Point: 23°   Wind: 8mph
Humidity: 57%   Direction: 300°WNW
Pressure: 30.13"   Gusts: NA
Location:  39.36°N, 76.78°W
Report Text: KBWI 191654Z 30007KT 10SM BKN033 03/M05 A3013 RMK AO2 SLP205 T00281050
Loading
Personal Weather Stations






























Interactive Weather Map New forecast layout! Learn more

10-Day Weather Forecast

Advertisements
Track Severe Weather on mobile